sensor_id;sensor_type;location;lat;lon;timestamp;pressure;altitude;pressure_sealevel;temperature;humidity
8699;BME280;4386;51.236;6.742;2023-01-27T00:00:01;101829.38;;;5.69;81.57
8699;BME280;4386;51.236;6.742;2023-01-27T00:01:04;101839.91;;;5.69;81.48
8699;BME280;4386;51.236;6.742;2023-01-27T00:02:07;101846.88;;;5.70;81.20
8699;BME280;4386;51.236;6.742;2023-01-27T00:03:22;101841.56;;;5.72;81.49
8699;BME280;4386;51.236;6.742;2023-01-27T00:04:46;101841.63;;;5.70;81.27
8699;BME280;4386;51.236;6.742;2023-01-27T00:06:08;101834.53;;;5.72;81.48
8699;BME280;4386;51.236;6.742;2023-01-27T00:07:32;101841.50;;;5.73;81.24
8699;BME280;4386;51.236;6.742;2023-01-27T00:08:55;101840.59;;;5.74;81.23
8699;BME280;4386;51.236;6.742;2023-01-27T00:10:18;101837.97;;;5.74;81.20
8699;BME280;4386;51.236;6.742;2023-01-27T00:11:40;101843.22;;;5.74;81.23
8699;BME280;4386;51.236;6.742;2023-01-27T00:13:20;101843.22;;;5.74;81.27
8699;BME280;4386;51.236;6.742;2023-01-27T00:14:48;101843.97;;;5.78;81.19
8699;BME280;4386;51.236;6.742;2023-01-27T00:16:11;101842.19;;;5.78;81.12
8699;BME280;4386;51.236;6.742;2023-01-27T00:17:32;101839.59;;;5.77;81.06
8699;BME280;4386;51.236;6.742;2023-01-27T00:18:55;101839.56;;;5.78;81.12
8699;BME280;4386;51.236;6.742;2023-01-27T00:20:19;101841.25;;;5.79;80.69
8699;BME280;4386;51.236;6.742;2023-01-27T00:22:02;101842.97;;;5.81;80.91
8699;BME280;4386;51.236;6.742;2023-01-27T00:23:42;101845.56;;;5.82;80.71
8699;BME280;4386;51.236;6.742;2023-01-27T00:25:23;101840.22;;;5.84;80.68
8699;BME280;4386;51.236;6.742;2023-01-27T00:26:45;101843.69;;;5.86;80.63
8699;BME280;4386;51.236;6.742;2023-01-27T00:28:07;101850.69;;;5.85;80.73
8699;BME280;4386;51.236;6.742;2023-01-27T00:29:29;101845.44;;;5.85;80.62
8699;BME280;4386;51.236;6.742;2023-01-27T00:30:52;101840.16;;;5.85;80.63
8699;BME280;4386;51.236;6.742;2023-01-27T00:32:13;101841.94;;;5.85;80.66
8699;BME280;4386;51.236;6.742;2023-01-27T00:33:54;101843.69;;;5.86;80.56
8699;BME280;4386;51.236;6.742;2023-01-27T00:35:23;101847.16;;;5.86;80.65
8699;BME280;4386;51.236;6.742;2023-01-27T00:36:46;101847.16;;;5.86;80.58
8699;BME280;4386;51.236;6.742;2023-01-27T00:38:09;101849.78;;;5.86;80.42
8699;BME280;4386;51.236;6.742;2023-01-27T00:39:31;101848.88;;;5.87;80.38
8699;BME280;4386;51.236;6.742;2023-01-27T00:40:54;101844.47;;;5.88;80.52
8699;BME280;4386;51.236;6.742;2023-01-27T00:42:40;101846.25;;;5.87;80.03
8699;BME280;4386;51.236;6.742;2023-01-27T00:44:04;101851.47;;;5.89;80.40
8699;BME280;4386;51.236;6.742;2023-01-27T00:45:29;101850.59;;;5.88;80.48
8699;BME280;4386;51.236;6.742;2023-01-27T00:47:11;101853.16;;;5.90;80.39
8699;BME280;4386;51.236;6.742;2023-01-27T00:48:34;101853.16;;;5.90;80.42
8699;BME280;4386;51.236;6.742;2023-01-27T00:49:57;101847.03;;;5.89;80.28
8699;BME280;4386;51.236;6.742;2023-01-27T00:51:21;101845.25;;;5.90;80.13
8699;BME280;4386;51.236;6.742;2023-01-27T00:52:45;101849.59;;;5.91;80.18
8699;BME280;4386;51.236;6.742;2023-01-27T00:54:07;101850.47;;;5.91;80.30
8699;BME280;4386;51.236;6.742;2023-01-27T00:55:29;101847.75;;;5.93;80.19
8699;BME280;4386;51.236;6.742;2023-01-27T00:56:52;101851.19;;;5.95;80.23
8699;BME280;4386;51.236;6.742;2023-01-27T00:58:14;101852.09;;;5.94;80.00
8699;BME280;4386;51.236;6.742;2023-01-27T00:59:36;101853.00;;;5.93;79.91
8699;BME280;4386;51.236;6.742;2023-01-27T01:00:59;101859.13;;;5.93;80.00
8699;BME280;4386;51.236;6.742;2023-01-27T01:02:22;101859.09;;;5.95;80.21
8699;BME280;4386;51.236;6.742;2023-01-27T01:03:45;101862.63;;;5.94;79.92
8699;BME280;4386;51.236;6.742;2023-01-27T01:05:07;101859.09;;;5.95;79.84
8699;BME280;4386;51.236;6.742;2023-01-27T01:06:31;101858.16;;;5.96;79.85
8699;BME280;4386;51.236;6.742;2023-01-27T01:07:54;101858.16;;;5.96;79.95
8699;BME280;4386;51.236;6.742;2023-01-27T01:09:15;101857.25;;;5.97;79.80
8699;BME280;4386;51.236;6.742;2023-01-27T01:10:38;101852.88;;;5.96;80.15
8699;BME280;4386;51.236;6.742;2023-01-27T01:11:59;101866.84;;;5.98;79.89
8699;BME280;4386;51.236;6.742;2023-01-27T01:13:22;101866.00;;;5.97;80.02
8699;BME280;4386;51.236;6.742;2023-01-27T01:14:43;101862.59;;;5.95;79.74
8699;BME280;4386;51.236;6.742;2023-01-27T01:16:08;101866.91;;;5.96;79.94
8699;BME280;4386;51.236;6.742;2023-01-27T01:17:31;101868.63;;;5.97;79.79
8699;BME280;4386;51.236;6.742;2023-01-27T01:18:53;101867.72;;;5.98;79.97
8699;BME280;4386;51.236;6.742;2023-01-27T01:20:15;101872.97;;;5.98;79.72
8699;BME280;4386;51.236;6.742;2023-01-27T01:21:38;101865.09;;;5.98;79.89
8699;BME280;4386;51.236;6.742;2023-01-27T01:23:01;101875.63;;;5.98;79.57
8699;BME280;4386;51.236;6.742;2023-01-27T01:24:23;101868.59;;;5.99;79.66
8699;BME280;4386;51.236;6.742;2023-01-27T01:25:51;101879.09;;;5.99;79.33
8699;BME280;4386;51.236;6.742;2023-01-27T01:27:13;101874.66;;;5.99;79.50
8699;BME280;4386;51.236;6.742;2023-01-27T01:28:36;101868.50;;;6.00;79.25
8699;BME280;4386;51.236;6.742;2023-01-27T01:29:59;101877.25;;;6.01;79.62
8699;BME280;4386;51.236;6.742;2023-01-27T01:31:22;101881.63;;;6.02;79.25
8699;BME280;4386;51.236;6.742;2023-01-27T01:32:44;101886.06;;;6.00;79.48
8699;BME280;4386;51.236;6.742;2023-01-27T01:34:06;101883.50;;;5.98;79.26
8699;BME280;4386;51.236;6.742;2023-01-27T01:35:29;101881.00;;;5.95;79.03
8699;BME280;4386;51.236;6.742;2023-01-27T01:36:53;101881.03;;;5.94;78.89
8699;BME280;4386;51.236;6.742;2023-01-27T01:38:15;101881.81;;;5.96;79.18
8699;BME280;4386;51.236;6.742;2023-01-27T01:39:38;101877.50;;;5.95;79.05
8699;BME280;4386;51.236;6.742;2023-01-27T01:41:00;101885.44;;;5.93;79.09
8699;BME280;4386;51.236;6.742;2023-01-27T01:42:23;101888.06;;;5.93;78.64
8699;BME280;4386;51.236;6.742;2023-01-27T01:43:46;101890.78;;;5.92;78.77
8699;BME280;4386;51.236;6.742;2023-01-27T01:45:41;101888.16;;;5.92;78.90
8699;BME280;4386;51.236;6.742;2023-01-27T01:47:04;101891.69;;;5.91;78.89
8699;BME280;4386;51.236;6.742;2023-01-27T01:48:33;101884.72;;;5.90;78.67
8699;BME280;4386;51.236;6.742;2023-01-27T01:49:55;101887.41;;;5.88;78.89
8699;BME280;4386;51.236;6.742;2023-01-27T01:51:20;101891.81;;;5.88;78.79
8699;BME280;4386;51.236;6.742;2023-01-27T01:52:46;101890.09;;;5.87;78.50
8699;BME280;4386;51.236;6.742;2023-01-27T01:54:11;101898.94;;;5.86;78.62
8699;BME280;4386;51.236;6.742;2023-01-27T01:55:37;101892.72;;;5.87;78.56
8699;BME280;4386;51.236;6.742;2023-01-27T01:57:02;101894.44;;;5.88;78.53
8699;BME280;4386;51.236;6.742;2023-01-27T01:58:26;101889.97;;;5.90;78.44
8699;BME280;4386;51.236;6.742;2023-01-27T01:59:51;101882.94;;;5.90;78.74
8699;BME280;4386;51.236;6.742;2023-01-27T02:01:16;101888.28;;;5.89;78.61
8699;BME280;4386;51.236;6.742;2023-01-27T02:02:40;101893.53;;;5.89;78.71
8699;BME280;4386;51.236;6.742;2023-01-27T02:04:05;101878.66;;;5.88;78.45
8699;BME280;4386;51.236;6.742;2023-01-27T02:05:33;101884.84;;;5.87;78.69
8699;BME280;4386;51.236;6.742;2023-01-27T02:07:02;101891.03;;;5.86;78.18
8699;BME280;4386;51.236;6.742;2023-01-27T02:08:29;101875.25;;;5.86;78.45
8699;BME280;4386;51.236;6.742;2023-01-27T02:09:55;101893.66;;;5.86;78.36
8699;BME280;4386;51.236;6.742;2023-01-27T02:11:18;101886.59;;;5.86;78.21
8699;BME280;4386;51.236;6.742;2023-01-27T02:12:40;101891.91;;;5.85;78.15
8699;BME280;4386;51.236;6.742;2023-01-27T02:14:02;101888.47;;;5.83;78.49
8699;BME280;4386;51.236;6.742;2023-01-27T02:15:25;101890.19;;;5.84;78.21
8699;BME280;4386;51.236;6.742;2023-01-27T02:16:46;101898.97;;;5.83;78.40
8699;BME280;4386;51.236;6.742;2023-01-27T02:18:09;101896.34;;;5.83;78.41
8699;BME280;4386;51.236;6.742;2023-01-27T02:19:35;101892.91;;;5.82;78.57
8699;BME280;4386;51.236;6.742;2023-01-27T02:21:03;101902.56;;;5.82;78.58
8699;BME280;4386;51.236;6.742;2023-01-27T02:22:30;101896.44;;;5.81;78.49
8699;BME280;4386;51.236;6.742;2023-01-27T02:23:58;101895.56;;;5.81;78.47
8699;BME280;4386;51.236;6.742;2023-01-27T02:25:25;101889.53;;;5.78;78.42
8699;BME280;4386;51.236;6.742;2023-01-27T02:26:51;101895.69;;;5.77;78.30
8699;BME280;4386;51.236;6.742;2023-01-27T02:28:13;101895.69;;;5.77;78.47
8699;BME280;4386;51.236;6.742;2023-01-27T02:29:35;101896.56;;;5.78;78.52
8699;BME280;4386;51.236;6.742;2023-01-27T02:30:57;101900.03;;;5.78;78.57
8699;BME280;4386;51.236;6.742;2023-01-27T02:32:23;101905.31;;;5.78;78.61
8699;BME280;4386;51.236;6.742;2023-01-27T02:33:46;101908.81;;;5.79;78.45
8699;BME280;4386;51.236;6.742;2023-01-27T02:35:10;101902.69;;;5.78;78.42
8699;BME280;4386;51.236;6.742;2023-01-27T02:36:40;101901.75;;;5.79;78.87
8699;BME280;4386;51.236;6.742;2023-01-27T02:38:03;101911.47;;;5.77;78.63
8699;BME280;4386;51.236;6.742;2023-01-27T02:39:31;101906.22;;;5.77;78.73
8699;BME280;4386;51.236;6.742;2023-01-27T02:40:59;101906.22;;;5.77;78.49
8699;BME280;4386;51.236;6.742;2023-01-27T02:42:26;101907.97;;;5.77;78.55
8699;BME280;4386;51.236;6.742;2023-01-27T02:43:50;101913.25;;;5.77;78.68
8699;BME280;4386;51.236;6.742;2023-01-27T02:45:13;101919.38;;;5.77;78.62
8699;BME280;4386;51.236;6.742;2023-01-27T02:46:36;101912.34;;;5.78;78.32
8699;BME280;4386;51.236;6.742;2023-01-27T02:47:59;101910.69;;;5.75;78.46
8699;BME280;4386;51.236;6.742;2023-01-27T02:49:21;101907.19;;;5.75;78.33
8699;BME280;4386;51.236;6.742;2023-01-27T02:50:43;101916.00;;;5.74;78.39
8699;BME280;4386;51.236;6.742;2023-01-27T02:52:05;101918.69;;;5.72;78.44
8699;BME280;4386;51.236;6.742;2023-01-27T02:53:27;101916.97;;;5.71;78.31
8699;BME280;4386;51.236;6.742;2023-01-27T02:54:49;101915.25;;;5.70;78.54
8699;BME280;4386;51.236;6.742;2023-01-27T02:56:11;101919.78;;;5.67;78.27
8699;BME280;4386;51.236;6.742;2023-01-27T02:57:35;101925.09;;;5.65;78.31
8699;BME280;4386;51.236;6.742;2023-01-27T02:58:57;101926.06;;;5.63;78.41
8699;BME280;4386;51.236;6.742;2023-01-27T03:00:20;101931.41;;;5.61;78.23
8699;BME280;4386;51.236;6.742;2023-01-27T03:01:41;101921.84;;;5.59;78.13
8699;BME280;4386;51.236;6.742;2023-01-27T03:03:04;101924.53;;;5.57;78.37
8699;BME280;4386;51.236;6.742;2023-01-27T03:04:25;101921.91;;;5.57;78.41
8699;BME280;4386;51.236;6.742;2023-01-27T03:05:48;101928.06;;;5.56;78.04
8699;BME280;4386;51.236;6.742;2023-01-27T03:07:11;101917.66;;;5.53;78.06
8699;BME280;4386;51.236;6.742;2023-01-27T03:08:33;101924.75;;;5.51;78.01
8699;BME280;4386;51.236;6.742;2023-01-27T03:09:56;101922.19;;;5.50;77.78
8699;BME280;4386;51.236;6.742;2023-01-27T03:11:17;101932.81;;;5.47;77.90
8699;BME280;4386;51.236;6.742;2023-01-27T03:12:43;101921.47;;;5.46;77.65
8699;BME280;4386;51.236;6.742;2023-01-27T03:13:44;101932.03;;;5.45;77.70
8699;BME280;4386;51.236;6.742;2023-01-27T03:14:48;101934.59;;;5.46;77.43
8699;BME280;4386;51.236;6.742;2023-01-27T03:16:09;101940.81;;;5.44;77.08
8699;BME280;4386;51.236;6.742;2023-01-27T03:17:30;101934.69;;;5.43;77.04
8699;BME280;4386;51.236;6.742;2023-01-27T03:18:50;101932.13;;;5.42;77.06
8699;BME280;4386;51.236;6.742;2023-01-27T03:19:56;101937.44;;;5.40;77.09
8699;BME280;4386;51.236;6.742;2023-01-27T03:21:00;101938.38;;;5.39;77.45
8699;BME280;4386;51.236;6.742;2023-01-27T03:22:03;101938.38;;;5.39;77.00
8699;BME280;4386;51.236;6.742;2023-01-27T03:23:16;101934.81;;;5.40;77.01
8699;BME280;4386;51.236;6.742;2023-01-27T03:24:19;101933.91;;;5.41;77.17
8699;BME280;4386;51.236;6.742;2023-01-27T03:25:21;101935.56;;;5.44;77.22
8699;BME280;4386;51.236;6.742;2023-01-27T03:26:23;101937.31;;;5.43;76.77
8699;BME280;4386;51.236;6.742;2023-01-27T03:27:26;101933.00;;;5.42;76.87
8699;BME280;4386;51.236;6.742;2023-01-27T03:28:30;101934.69;;;5.43;76.89
8699;BME280;4386;51.236;6.742;2023-01-27T03:29:33;101938.19;;;5.44;77.17
8699;BME280;4386;51.236;6.742;2023-01-27T03:30:58;101932.06;;;5.43;77.03
8699;BME280;4386;51.236;6.742;2023-01-27T03:32:01;101939.91;;;5.45;76.80
8699;BME280;4386;51.236;6.742;2023-01-27T03:33:12;101939.03;;;5.44;76.97
8699;BME280;4386;51.236;6.742;2023-01-27T03:34:15;101937.25;;;5.46;76.92
8699;BME280;4386;51.236;6.742;2023-01-27T03:35:16;101934.66;;;5.45;76.69
8699;BME280;4386;51.236;6.742;2023-01-27T03:36:19;101948.69;;;5.44;76.81
8699;BME280;4386;51.236;6.742;2023-01-27T03:37:40;101938.25;;;5.42;77.02
8699;BME280;4386;51.236;6.742;2023-01-27T03:39:10;101944.31;;;5.44;77.14
8699;BME280;4386;51.236;6.742;2023-01-27T03:40:40;101944.31;;;5.44;77.14
8699;BME280;4386;51.236;6.742;2023-01-27T03:42:00;101938.19;;;5.44;77.04
8699;BME280;4386;51.236;6.742;2023-01-27T03:43:21;101929.41;;;5.45;77.33
8699;BME280;4386;51.236;6.742;2023-01-27T03:44:42;101939.94;;;5.43;77.00
8699;BME280;4386;51.236;6.742;2023-01-27T03:46:10;101930.38;;;5.42;77.06
8699;BME280;4386;51.236;6.742;2023-01-27T03:47:22;101940.03;;;5.42;77.04
8699;BME280;4386;51.236;6.742;2023-01-27T03:48:24;101939.16;;;5.41;77.18
8699;BME280;4386;51.236;6.742;2023-01-27T03:49:28;101938.25;;;5.42;77.02
8699;BME280;4386;51.236;6.742;2023-01-27T03:50:31;101939.94;;;5.43;77.05
8699;BME280;4386;51.236;6.742;2023-01-27T03:51:37;101943.44;;;5.44;77.34
8699;BME280;4386;51.236;6.742;2023-01-27T03:52:40;101939.03;;;5.44;77.37
8699;BME280;4386;51.236;6.742;2023-01-27T03:53:41;101938.19;;;5.44;77.37
8699;BME280;4386;51.236;6.742;2023-01-27T03:54:44;101940.78;;;5.45;77.25
8699;BME280;4386;51.236;6.742;2023-01-27T03:55:55;101938.94;;;5.47;77.28
8699;BME280;4386;51.236;6.742;2023-01-27T03:56:57;101935.41;;;5.48;77.20
8699;BME280;4386;51.236;6.742;2023-01-27T03:58:18;101934.53;;;5.48;77.40
8699;BME280;4386;51.236;6.742;2023-01-27T03:59:25;101940.69;;;5.47;77.45
8699;BME280;4386;51.236;6.742;2023-01-27T04:00:29;101944.19;;;5.47;77.31
8699;BME280;4386;51.236;6.742;2023-01-27T04:01:34;101938.94;;;5.47;77.30
8699;BME280;4386;51.236;6.742;2023-01-27T04:02:36;101944.19;;;5.47;77.50
8699;BME280;4386;51.236;6.742;2023-01-27T04:03:57;101946.81;;;5.47;77.45
8699;BME280;4386;51.236;6.742;2023-01-27T04:05:26;101942.50;;;5.46;77.29
8699;BME280;4386;51.236;6.742;2023-01-27T04:06:46;101944.31;;;5.44;77.18
8699;BME280;4386;51.236;6.742;2023-01-27T04:08:05;101942.59;;;5.43;77.58
8699;BME280;4386;51.236;6.742;2023-01-27T04:09:08;101937.31;;;5.43;77.51
8699;BME280;4386;51.236;6.742;2023-01-27T04:10:12;101951.28;;;5.45;77.46
8699;BME280;4386;51.236;6.742;2023-01-27T04:11:13;101937.25;;;5.46;77.55
8699;BME280;4386;51.236;6.742;2023-01-27T04:12:47;101939.03;;;5.44;77.58
8699;BME280;4386;51.236;6.742;2023-01-27T04:14:00;101940.88;;;5.42;77.58
8699;BME280;4386;51.236;6.742;2023-01-27T04:15:02;101946.16;;;5.42;77.83
8699;BME280;4386;51.236;6.742;2023-01-27T04:16:06;101940.88;;;5.42;77.86
8699;BME280;4386;51.236;6.742;2023-01-27T04:17:10;101935.63;;;5.42;77.91
8699;BME280;4386;51.236;6.742;2023-01-27T04:18:13;101937.31;;;5.43;77.93
8699;BME280;4386;51.236;6.742;2023-01-27T04:19:23;101947.91;;;5.42;77.85
8699;BME280;4386;51.236;6.742;2023-01-27T04:20:36;101942.69;;;5.40;78.12
8699;BME280;4386;51.236;6.742;2023-01-27T04:21:38;101942.81;;;5.37;77.75
8699;BME280;4386;51.236;6.742;2023-01-27T04:22:41;101946.38;;;5.36;78.15
8699;BME280;4386;51.236;6.742;2023-01-27T04:23:44;101942.03;;;5.35;78.13
8699;BME280;4386;51.236;6.742;2023-01-27T04:24:46;101954.31;;;5.35;78.18
8699;BME280;4386;51.236;6.742;2023-01-27T04:25:58;101954.41;;;5.32;78.33
8699;BME280;4386;51.236;6.742;2023-01-27T04:27:02;101947.50;;;5.29;78.19
8699;BME280;4386;51.236;6.742;2023-01-27T04:28:05;101948.41;;;5.28;78.42
8699;BME280;4386;51.236;6.742;2023-01-27T04:29:06;101955.50;;;5.26;78.25
8699;BME280;4386;51.236;6.742;2023-01-27T04:30:10;101954.69;;;5.24;78.67
8699;BME280;4386;51.236;6.742;2023-01-27T04:31:15;101952.91;;;5.24;78.58
8699;BME280;4386;51.236;6.742;2023-01-27T04:32:17;101960.75;;;5.26;78.77
8699;BME280;4386;51.236;6.742;2023-01-27T04:33:19;101951.13;;;5.27;78.80
8699;BME280;4386;51.236;6.742;2023-01-27T04:34:21;101958.06;;;5.28;78.60
8699;BME280;4386;51.236;6.742;2023-01-27T04:35:23;101954.56;;;5.27;78.83
8699;BME280;4386;51.236;6.742;2023-01-27T04:36:38;101959.03;;;5.25;78.55
8699;BME280;4386;51.236;6.742;2023-01-27T04:37:41;101952.06;;;5.24;79.03
8699;BME280;4386;51.236;6.742;2023-01-27T04:38:43;101954.66;;;5.25;79.17
8699;BME280;4386;51.236;6.742;2023-01-27T04:39:46;101950.25;;;5.26;79.08
8699;BME280;4386;51.236;6.742;2023-01-27T04:40:48;101957.19;;;5.27;78.91
8699;BME280;4386;51.236;6.742;2023-01-27T04:42:00;101948.53;;;5.25;78.93
8699;BME280;4386;51.236;6.742;2023-01-27T04:43:02;101955.53;;;5.24;79.06
8699;BME280;4386;51.236;6.742;2023-01-27T04:44:05;101956.41;;;5.25;79.16
8699;BME280;4386;51.236;6.742;2023-01-27T04:45:08;101955.63;;;5.23;79.25
8699;BME280;4386;51.236;6.742;2023-01-27T04:46:10;101956.53;;;5.22;79.06
8699;BME280;4386;51.236;6.742;2023-01-27T04:47:14;101949.63;;;5.19;79.34
8699;BME280;4386;51.236;6.742;2023-01-27T04:48:16;101966.28;;;5.18;79.23
8699;BME280;4386;51.236;6.742;2023-01-27T04:49:19;101956.69;;;5.17;79.74
8699;BME280;4386;51.236;6.742;2023-01-27T04:50:20;101959.31;;;5.17;79.74
8699;BME280;4386;51.236;6.742;2023-01-27T04:51:23;101956.69;;;5.17;79.78
8699;BME280;4386;51.236;6.742;2023-01-27T04:52:24;101958.47;;;5.17;79.85
8699;BME280;4386;51.236;6.742;2023-01-27T04:53:27;101964.63;;;5.16;79.59
8699;BME280;4386;51.236;6.742;2023-01-27T04:54:29;101960.28;;;5.15;79.64
8699;BME280;4386;51.236;6.742;2023-01-27T04:55:31;101961.13;;;5.15;80.00
8699;BME280;4386;51.236;6.742;2023-01-27T04:56:35;101957.66;;;5.15;79.94
8699;BME280;4386;51.236;6.742;2023-01-27T04:57:38;101962.91;;;5.15;79.99
8699;BME280;4386;51.236;6.742;2023-01-27T04:58:50;101961.94;;;5.17;80.03
8699;BME280;4386;51.236;6.742;2023-01-27T04:59:52;101962.78;;;5.18;80.36
8699;BME280;4386;51.236;6.742;2023-01-27T05:00:54;101965.38;;;5.19;80.19
8699;BME280;4386;51.236;6.742;2023-01-27T05:01:57;101963.50;;;5.23;80.35
8699;BME280;4386;51.236;6.742;2023-01-27T05:03:01;101974.91;;;5.22;80.41
8699;BME280;4386;51.236;6.742;2023-01-27T05:04:11;101963.50;;;5.23;80.53
8699;BME280;4386;51.236;6.742;2023-01-27T05:05:15;101968.75;;;5.23;80.71
8699;BME280;4386;51.236;6.742;2023-01-27T05:06:16;101959.16;;;5.22;80.29
8699;BME280;4386;51.236;6.742;2023-01-27T05:07:19;101965.19;;;5.24;80.61
8699;BME280;4386;51.236;6.742;2023-01-27T05:08:21;101968.66;;;5.26;80.57
8699;BME280;4386;51.236;6.742;2023-01-27T05:09:23;101962.47;;;5.27;80.70
8699;BME280;4386;51.236;6.742;2023-01-27T05:10:25;101961.56;;;5.28;80.77
8699;BME280;4386;51.236;6.742;2023-01-27T05:11:28;101961.56;;;5.28;80.59
8699;BME280;4386;51.236;6.742;2023-01-27T05:12:30;101958.94;;;5.28;80.68
8699;BME280;4386;51.236;6.742;2023-01-27T05:13:32;101964.13;;;5.30;80.83
8699;BME280;4386;51.236;6.742;2023-01-27T05:14:34;101965.91;;;5.29;80.92
8699;BME280;4386;51.236;6.742;2023-01-27T05:15:39;101962.41;;;5.29;80.80
8699;BME280;4386;51.236;6.742;2023-01-27T05:16:41;101964.13;;;5.30;80.76
8699;BME280;4386;51.236;6.742;2023-01-27T05:17:44;101967.59;;;5.30;81.12
8699;BME280;4386;51.236;6.742;2023-01-27T05:18:48;101964.06;;;5.31;81.17
8699;BME280;4386;51.236;6.742;2023-01-27T05:19:50;101964.94;;;5.32;81.09
8699;BME280;4386;51.236;6.742;2023-01-27T05:20:52;101970.97;;;5.34;80.97
8699;BME280;4386;51.236;6.742;2023-01-27T05:21:55;101975.41;;;5.33;81.08
8699;BME280;4386;51.236;6.742;2023-01-27T05:22:56;101970.16;;;5.33;81.17
8699;BME280;4386;51.236;6.742;2023-01-27T05:24:19;101965.72;;;5.34;81.30
8699;BME280;4386;51.236;6.742;2023-01-27T05:25:22;101968.34;;;5.34;81.26
8699;BME280;4386;51.236;6.742;2023-01-27T05:26:33;101968.34;;;5.34;81.21
8699;BME280;4386;51.236;6.742;2023-01-27T05:27:36;101974.47;;;5.34;81.26
8699;BME280;4386;51.236;6.742;2023-01-27T05:28:39;101969.22;;;5.34;81.21
8699;BME280;4386;51.236;6.742;2023-01-27T05:29:42;101969.22;;;5.34;81.59
8699;BME280;4386;51.236;6.742;2023-01-27T05:30:44;101974.44;;;5.36;81.57
8699;BME280;4386;51.236;6.742;2023-01-27T05:31:46;101978.75;;;5.37;81.55
8699;BME280;4386;51.236;6.742;2023-01-27T05:32:59;101971.78;;;5.36;81.29
8699;BME280;4386;51.236;6.742;2023-01-27T05:34:02;101972.69;;;5.35;81.76
8699;BME280;4386;51.236;6.742;2023-01-27T05:35:05;101980.59;;;5.35;81.69
8699;BME280;4386;51.236;6.742;2023-01-27T05:36:09;101977.91;;;5.36;81.62
8699;BME280;4386;51.236;6.742;2023-01-27T05:37:13;101977.91;;;5.36;81.59
8699;BME280;4386;51.236;6.742;2023-01-27T05:38:15;101978.75;;;5.37;81.80
8699;BME280;4386;51.236;6.742;2023-01-27T05:39:17;101983.09;;;5.38;81.79
8699;BME280;4386;51.236;6.742;2023-01-27T05:40:19;101978.72;;;5.38;81.58
8699;BME280;4386;51.236;6.742;2023-01-27T05:41:22;101977.84;;;5.38;81.74
8699;BME280;4386;51.236;6.742;2023-01-27T05:42:25;101975.22;;;5.38;81.64
8699;BME280;4386;51.236;6.742;2023-01-27T05:43:28;101982.25;;;5.37;82.01
8699;BME280;4386;51.236;6.742;2023-01-27T05:44:31;101984.88;;;5.37;81.84
8699;BME280;4386;51.236;6.742;2023-01-27T05:45:33;101982.25;;;5.37;81.95
8699;BME280;4386;51.236;6.742;2023-01-27T05:46:38;101977.91;;;5.36;81.92
8699;BME280;4386;51.236;6.742;2023-01-27T05:47:42;101978.75;;;5.37;82.17
8699;BME280;4386;51.236;6.742;2023-01-27T05:48:45;101983.06;;;5.39;82.05
8699;BME280;4386;51.236;6.742;2023-01-27T05:49:49;101980.47;;;5.38;82.07
8699;BME280;4386;51.236;6.742;2023-01-27T05:50:54;101985.72;;;5.38;81.86
8699;BME280;4386;51.236;6.742;2023-01-27T05:51:56;101990.97;;;5.38;82.14
8699;BME280;4386;51.236;6.742;2023-01-27T05:53:06;101991.84;;;5.38;82.05
8699;BME280;4386;51.236;6.742;2023-01-27T05:54:08;101985.69;;;5.39;82.29
8699;BME280;4386;51.236;6.742;2023-01-27T05:55:11;101987.44;;;5.39;81.98
8699;BME280;4386;51.236;6.742;2023-01-27T05:56:15;101988.31;;;5.39;82.14
8699;BME280;4386;51.236;6.742;2023-01-27T05:57:18;101986.59;;;5.38;82.32
8699;BME280;4386;51.236;6.742;2023-01-27T05:58:20;101988.31;;;5.39;82.32
8699;BME280;4386;51.236;6.742;2023-01-27T05:59:23;101985.63;;;5.41;82.36
8699;BME280;4386;51.236;6.742;2023-01-27T06:00:26;101983.84;;;5.41;82.26
8699;BME280;4386;51.236;6.742;2023-01-27T06:01:31;101984.75;;;5.40;82.35
8699;BME280;4386;51.236;6.742;2023-01-27T06:02:34;101987.38;;;5.40;82.26
8699;BME280;4386;51.236;6.742;2023-01-27T06:03:36;101983.06;;;5.39;82.35
8699;BME280;4386;51.236;6.742;2023-01-27T06:04:39;101986.59;;;5.38;82.55
8699;BME280;4386;51.236;6.742;2023-01-27T06:05:53;101983.16;;;5.36;82.44
8699;BME280;4386;51.236;6.742;2023-01-27T06:07:01;101983.16;;;5.36;82.72
8699;BME280;4386;51.236;6.742;2023-01-27T06:08:03;101987.59;;;5.34;82.75
8699;BME280;4386;51.236;6.742;2023-01-27T06:09:06;101991.97;;;5.35;82.73
8699;BME280;4386;51.236;6.742;2023-01-27T06:10:09;101989.34;;;5.35;82.58
8699;BME280;4386;51.236;6.742;2023-01-27T06:11:13;101983.22;;;5.35;82.75
8699;BME280;4386;51.236;6.742;2023-01-27T06:12:21;101992.81;;;5.36;82.79
8699;BME280;4386;51.236;6.742;2023-01-27T06:13:23;101988.44;;;5.36;82.91
8699;BME280;4386;51.236;6.742;2023-01-27T06:14:25;101992.75;;;5.37;82.86
8699;BME280;4386;51.236;6.742;2023-01-27T06:15:27;101986.59;;;5.38;82.86
8699;BME280;4386;51.236;6.742;2023-01-27T06:16:30;101990.09;;;5.39;82.92
8699;BME280;4386;51.236;6.742;2023-01-27T06:17:32;101990.00;;;5.40;82.77
8699;BME280;4386;51.236;6.742;2023-01-27T06:18:44;101993.56;;;5.39;83.02
8699;BME280;4386;51.236;6.742;2023-01-27T06:19:47;101990.00;;;5.40;82.89
8699;BME280;4386;51.236;6.742;2023-01-27T06:20:49;101991.81;;;5.40;82.88
8699;BME280;4386;51.236;6.742;2023-01-27T06:21:53;101993.50;;;5.41;83.05
8699;BME280;4386;51.236;6.742;2023-01-27T06:22:55;102001.38;;;5.41;82.82
8699;BME280;4386;51.236;6.742;2023-01-27T06:23:57;101994.44;;;5.40;83.09
8699;BME280;4386;51.236;6.742;2023-01-27T06:25:00;101996.13;;;5.41;82.91
8699;BME280;4386;51.236;6.742;2023-01-27T06:26:03;101995.16;;;5.43;83.12
8699;BME280;4386;51.236;6.742;2023-01-27T06:27:06;101995.16;;;5.43;83.17
8699;BME280;4386;51.236;6.742;2023-01-27T06:28:08;101998.72;;;5.42;83.10
8699;BME280;4386;51.236;6.742;2023-01-27T06:29:20;101990.88;;;5.41;83.08
8699;BME280;4386;51.236;6.742;2023-01-27T06:30:23;101992.63;;;5.40;83.22
8699;BME280;4386;51.236;6.742;2023-01-27T06:31:25;102000.41;;;5.43;83.31
8699;BME280;4386;51.236;6.742;2023-01-27T06:32:28;101998.59;;;5.45;83.24
8699;BME280;4386;51.236;6.742;2023-01-27T06:33:30;102001.13;;;5.48;83.48
8699;BME280;4386;51.236;6.742;2023-01-27T06:34:32;101994.97;;;5.49;83.18
8699;BME280;4386;51.236;6.742;2023-01-27T06:35:36;102003.63;;;5.51;83.52
8699;BME280;4386;51.236;6.742;2023-01-27T06:36:39;102008.03;;;5.51;83.11
8699;BME280;4386;51.236;6.742;2023-01-27T06:37:42;102006.22;;;5.53;83.42
8699;BME280;4386;51.236;6.742;2023-01-27T06:38:45;102015.81;;;5.54;83.28
8699;BME280;4386;51.236;6.742;2023-01-27T06:39:46;102003.50;;;5.54;83.41